Time;durP1;ratioP1;P1;durP2;ratioP2;P2;SDS_P1;SDS_P2;PMS_P1;PMS_P2;Temp;Humidity;BMP_temperature;BMP_pressure;BME280_temperature;BME280_humidity;BME280_pressure;Samples;Min_cycle;Max_cycle;Signal;HPM_P1;HPM_P2
2022/08/12 00:43:35;;;;;;;10.25;6.78;;;20.30;99.90;;;;;;5071754;28;20422;-69
2022/08/12 00:48:46;;;;;;;11.45;7.82;;;20.20;99.90;;;;;;5071990;28;20043;-69
2022/08/12 00:51:12;;;;;;;9.35;5.80;;;20.20;99.90;;;;;;5071527;28;20032;-69
2022/08/12 00:53:38;;;;;;;9.82;5.30;;;20.20;99.90;;;;;;5071678;28;20040;-69
2022/08/12 00:56:05;;;;;;;6.53;4.30;;;20.10;99.90;;;;;;5071660;28;20050;-69
2022/08/12 00:58:31;;;;;;;7.63;5.03;;;20.10;99.90;;;;;;5070975;28;20123;-69
2022/08/12 01:01:07;;;;;;;10.50;5.45;;;20.00;99.90;;;;;;5071520;28;20048;-69
2022/08/12 01:11:50;;;;;;;8.77;5.82;;;19.90;99.90;;;;;;5071558;28;20037;-69
2022/08/12 01:14:18;;;;;;;8.10;5.53;;;19.80;99.90;;;;;;5071384;28;20572;-69
2022/08/12 01:16:45;;;;;;;9.60;6.05;;;19.80;99.90;;;;;;5053629;28;20074;-69
2022/08/12 01:19:12;;;;;;;7.18;5.35;;;19.80;99.90;;;;;;5071245;28;20436;-69
2022/08/12 01:21:44;;;;;;;11.75;7.03;;;19.80;99.90;;;;;;5071648;28;20367;-69
2022/08/12 01:24:37;;;;;;;13.63;7.13;;;19.80;99.90;;;;;;5071543;28;20036;-69
2022/08/12 01:27:03;;;;;;;16.88;7.57;;;19.70;99.90;;;;;;5071293;28;20052;-69
2022/08/12 01:29:30;;;;;;;11.05;7.55;;;19.60;99.90;;;;;;5071416;28;20040;-69
2022/08/12 01:31:58;;;;;;;12.18;7.25;;;19.80;99.90;;;;;;5071339;28;20395;-69
2022/08/12 01:34:30;;;;;;;11.75;8.55;;;19.60;99.90;;;;;;5071083;28;20036;-69
2022/08/12 01:36:59;;;;;;;12.40;8.73;;;19.70;99.90;;;;;;5071460;28;20098;-69
2022/08/12 01:39:51;;;;;;;16.52;8.00;;;19.60;99.90;;;;;;5070940;28;20044;-69
2022/08/12 01:42:19;;;;;;;16.10;7.90;;;19.70;99.90;;;;;;5053237;28;20051;-69
2022/08/12 01:44:47;;;;;;;12.50;8.80;;;19.60;99.90;;;;;;5071278;28;20071;-70
2022/08/12 01:47:18;;;;;;;19.88;9.02;;;19.60;99.90;;;;;;5071321;28;20119;-69
2022/08/12 01:49:59;;;;;;;14.45;9.25;;;19.60;99.90;;;;;;5070907;28;20076;-70
2022/08/12 01:52:48;;;;;;;14.93;9.32;;;19.60;99.90;;;;;;5071330;28;20037;-69
2022/08/12 01:55:18;;;;;;;13.35;8.75;;;19.60;99.90;;;;;;5053178;28;20136;-69
2022/08/12 01:57:52;;;;;;;15.65;8.68;;;19.60;99.90;;;;;;5071137;28;20080;-69
2022/08/12 02:00:18;;;;;;;13.15;8.13;;;19.50;99.90;;;;;;5052895;28;20414;-69
2022/08/12 02:02:51;;;;;;;13.35;8.63;;;19.40;99.90;;;;;;5070886;28;20036;-69
2022/08/12 02:11:25;;;;;;;9.80;6.03;;;19.50;99.90;;;;;;5073691;28;20044;-69
2022/08/12 02:14:02;;;;;;;10.90;6.18;;;19.40;99.90;;;;;;5074541;28;20412;-69
2022/08/12 02:16:56;;;;;;;10.38;6.45;;;19.40;99.90;;;;;;5074588;28;20389;-69
2022/08/12 02:19:31;;;;;;;14.07;7.00;;;19.50;99.90;;;;;;5056240;28;20561;-69
2022/08/12 02:22:19;;;;;;;10.82;5.97;;;19.40;99.90;;;;;;5074558;28;20037;-69
2022/08/12 02:24:45;;;;;;;9.18;5.85;;;19.30;99.90;;;;;;5074529;28;20044;-69
2022/08/12 02:27:13;;;;;;;7.93;6.00;;;19.40;99.90;;;;;;5074340;28;20397;-69
2022/08/12 02:29:41;;;;;;;10.27;6.22;;;19.30;99.90;;;;;;5073938;28;20052;-69
2022/08/12 02:32:08;;;;;;;11.75;6.55;;;19.20;99.90;;;;;;5074486;28;20032;-69
2022/08/12 02:34:34;;;;;;;11.52;6.53;;;19.10;99.90;;;;;;5074404;28;20075;-69
2022/08/12 02:37:00;;;;;;;7.32;5.65;;;19.10;99.90;;;;;;5074209;28;20067;-69
2022/08/12 02:39:30;;;;;;;9.25;6.50;;;19.10;99.90;;;;;;5055896;28;20097;-69
2022/08/12 02:42:00;;;;;;;11.75;7.60;;;19.20;99.90;;;;;;5074010;28;20040;-69
2022/08/12 02:44:29;;;;;;;9.93;6.45;;;19.30;99.90;;;;;;5074034;28;20116;-69
2022/08/12 02:46:59;;;;;;;11.52;7.43;;;19.10;99.90;;;;;;5074092;28;20444;-69
2022/08/12 02:49:30;;;;;;;8.63;6.72;;;19.10;99.90;;;;;;5073690;28;20044;-70
2022/08/12 02:51:58;;;;;;;10.55;7.30;;;19.20;99.90;;;;;;5073956;28;20093;-69
2022/08/12 02:54:25;;;;;;;7.68;5.95;;;19.20;99.90;;;;;;5073811;28;20044;-69
2022/08/12 02:56:50;;;;;;;12.27;6.63;;;19.20;99.90;;;;;;5073642;28;20037;-69
2022/08/12 02:59:20;;;;;;;9.73;6.28;;;19.10;99.90;;;;;;5073714;28;20032;-69
2022/08/12 03:01:49;;;;;;;8.25;6.38;;;19.00;99.90;;;;;;5073817;28;20044;-69
2022/08/12 03:04:23;;;;;;;9.07;7.10;;;19.10;99.90;;;;;;5073601;28;20498;-69
2022/08/12 03:07:13;;;;;;;12.20;6.90;;;19.10;99.90;;;;;;5055685;28;20375;-69
2022/08/12 03:09:48;;;;;;;8.60;6.82;;;18.90;99.90;;;;;;5061409;28;20044;-69
2022/08/12 03:12:16;;;;;;;8.82;7.05;;;18.90;99.90;;;;;;5055421;28;20044;-69
2022/08/12 03:14:43;;;;;;;11.35;7.00;;;19.10;99.90;;;;;;5055603;28;20036;-69
2022/08/12 03:17:33;;;;;;;7.28;6.32;;;19.00;99.90;;;;;;5073462;28;20075;-69
2022/08/12 03:19:59;;;;;;;10.15;6.88;;;18.90;99.90;;;;;;5073313;28;20044;-69
2022/08/12 03:22:28;;;;;;;9.25;7.40;;;19.00;99.90;;;;;;5072542;28;20041;-69
2022/08/12 03:24:57;;;;;;;13.38;7.10;;;18.90;99.90;;;;;;5073359;28;20072;-69
2022/08/12 03:27:25;;;;;;;9.75;6.93;;;18.90;99.90;;;;;;5055097;28;20131;-69
2022/08/12 03:29:54;;;;;;;7.95;6.78;;;18.80;99.90;;;;;;5072924;28;20033;-69
2022/08/12 03:32:23;;;;;;;8.20;6.38;;;18.90;99.90;;;;;;5072932;28;20095;-69
2022/08/12 03:34:49;;;;;;;13.57;6.45;;;18.80;99.90;;;;;;5073268;28;20079;-69
2022/08/12 03:37:18;;;;;;;9.48;6.20;;;18.80;99.90;;;;;;5073173;28;20064;-69
2022/08/12 03:39:45;;;;;;;7.70;5.90;;;18.90;99.90;;;;;;5072745;28;20064;-69
2022/08/12 03:42:34;;;;;;;7.88;5.65;;;18.80;99.90;;;;;;5072931;28;20402;-69
2022/08/12 04:01:42;;;;;;;8.82;6.10;;;18.80;99.90;;;;;;5072725;28;20105;-69
2022/08/12 04:04:09;;;;;;;9.88;6.30;;;18.60;99.90;;;;;;5072432;28;20033;-69
2022/08/12 04:06:41;;;;;;;8.18;5.47;;;18.70;99.90;;;;;;5072505;28;20044;-70
2022/08/12 04:09:07;;;;;;;8.02;5.43;;;18.80;99.90;;;;;;5072375;28;20036;-69
2022/08/12 04:14:24;;;;;;;9.23;6.10;;;18.70;99.90;;;;;;5072033;28;20044;-69
2022/08/12 04:16:50;;;;;;;7.30;5.47;;;18.60;99.90;;;;;;5072412;28;20048;-69
2022/08/12 04:19:17;;;;;;;7.57;5.88;;;18.80;99.90;;;;;;5072008;28;20390;-69
2022/08/12 04:21:43;;;;;;;8.50;6.15;;;18.70;99.90;;;;;;5072051;28;20047;-69
2022/08/12 04:24:09;;;;;;;12.23;6.38;;;18.50;99.90;;;;;;5072325;28;20036;-69
2022/08/12 04:26:35;;;;;;;8.45;6.75;;;18.50;99.90;;;;;;5071950;28;20052;-69
2022/08/12 04:29:02;;;;;;;7.68;6.13;;;18.50;99.90;;;;;;5072490;28;20072;-69
2022/08/12 04:31:32;;;;;;;8.38;5.22;;;18.50;99.90;;;;;;5071912;28;20036;-69
2022/08/12 04:33:58;;;;;;;9.65;6.72;;;18.60;99.90;;;;;;5071922;28;20044;-69
2022/08/12 04:36:24;;;;;;;11.07;6.72;;;18.60;99.90;;;;;;5071995;28;20055;-69
2022/08/12 04:38:51;;;;;;;12.75;5.95;;;18.50;99.90;;;;;;5071829;28;20036;-69
2022/08/12 04:41:18;;;;;;;11.38;5.78;;;18.50;99.90;;;;;;5071836;28;20048;-69
2022/08/12 04:43:44;;;;;;;8.95;6.60;;;18.50;99.90;;;;;;5071961;28;20036;-69
2022/08/12 04:46:10;;;;;;;10.45;5.90;;;18.60;99.90;;;;;;5071891;28;20629;-69
2022/08/12 04:48:36;;;;;;;12.02;6.22;;;18.60;99.90;;;;;;5071926;28;20455;-69
2022/08/12 04:51:02;;;;;;;7.88;6.18;;;18.60;99.90;;;;;;5071609;28;20452;-69
2022/08/12 04:53:28;;;;;;;8.82;6.45;;;18.50;99.90;;;;;;5071623;28;20403;-69
2022/08/12 04:55:54;;;;;;;10.90;6.40;;;18.70;99.90;;;;;;5071879;28;20125;-68
2022/08/12 04:58:20;;;;;;;10.02;6.35;;;18.60;99.90;;;;;;5071967;28;20129;-69
2022/08/12 05:00:46;;;;;;;8.57;6.07;;;18.80;99.90;;;;;;5071403;28;20460;-69
2022/08/12 05:03:12;;;;;;;10.02;6.03;;;18.80;99.90;;;;;;5071644;28;20037;-69
2022/08/12 05:05:39;;;;;;;9.60;5.43;;;18.80;99.90;;;;;;5071627;28;20146;-69
2022/08/12 05:08:10;;;;;;;8.20;5.47;;;18.90;99.90;;;;;;5071473;28;20108;-70
2022/08/12 05:10:36;;;;;;;8.25;5.28;;;19.20;99.90;;;;;;5071536;28;20040;-69
2022/08/12 05:13:11;;;;;;;11.70;6.22;;;19.20;99.90;;;;;;5071555;28;20158;-69
2022/08/12 05:15:41;;;;;;;8.32;5.35;;;19.50;99.90;;;;;;5071714;28;20067;-69
2022/08/12 05:18:07;;;;;;;10.20;5.18;;;19.50;99.90;;;;;;5071441;28;20490;-69
2022/08/12 05:20:33;;;;;;;14.40;5.78;;;19.60;99.90;;;;;;5071178;28;20410;-70
2022/08/12 05:23:17;;;;;;;10.30;5.50;;;19.90;99.90;;;;;;5071547;28;20043;-69
2022/08/12 05:25:44;;;;;;;9.13;5.38;;;20.00;99.90;;;;;;5071534;28;20044;-69
2022/08/12 05:28:12;;;;;;;7.22;5.07;;;20.20;99.90;;;;;;5071489;28;20406;-70
2022/08/12 05:30:38;;;;;;;6.30;4.72;;;20.30;99.90;;;;;;5069918;28;20029;-70
2022/08/12 05:33:04;;;;;;;8.05;4.35;;;20.50;99.90;;;;;;5070959;28;20043;-70
2022/08/12 05:35:38;;;;;;;6.53;4.00;;;20.70;99.90;;;;;;5053583;28;20079;-70
2022/08/12 05:40:52;;;;;;;7.63;5.45;;;21.00;99.90;;;;;;5071031;28;20053;-70
2022/08/12 05:43:18;;;;;;;7.40;5.15;;;21.20;99.70;;;;;;5071093;28;20040;-70
2022/08/12 05:45:44;;;;;;;5.80;3.90;;;21.40;98.80;;;;;;5073135;28;20076;-70
2022/08/12 05:48:10;;;;;;;7.03;4.57;;;21.60;98.60;;;;;;5075204;28;20044;-70
2022/08/12 05:50:36;;;;;;;8.10;4.38;;;21.80;98.00;;;;;;5073592;28;20123;-70
2022/08/12 05:53:02;;;;;;;7.07;4.18;;;21.90;97.40;;;;;;5074990;28;20049;-69
2022/08/12 05:55:28;;;;;;;6.82;5.03;;;22.10;97.10;;;;;;5057013;28;20146;-69
2022/08/12 05:57:55;;;;;;;7.50;4.05;;;22.40;96.00;;;;;;5057166;28;20083;-68
2022/08/12 06:00:24;;;;;;;7.65;4.32;;;22.50;95.30;;;;;;5074578;28;20036;-69
2022/08/12 06:02:55;;;;;;;6.32;4.18;;;22.70;94.80;;;;;;5074882;28;20040;-70
2022/08/12 06:05:21;;;;;;;7.32;4.47;;;22.80;94.40;;;;;;5056701;28;20048;-71
2022/08/12 06:07:48;;;;;;;7.70;4.13;;;22.80;94.00;;;;;;5074783;28;20033;-71
2022/08/12 06:10:16;;;;;;;6.07;4.20;;;22.70;93.80;;;;;;5074411;28;20050;-71
2022/08/12 06:12:42;;;;;;;9.52;5.45;;;22.90;93.60;;;;;;5074243;22;20040;-67
2022/08/12 06:15:08;;;;;;;6.60;4.35;;;22.90;93.50;;;;;;5095264;28;20047;-68
2022/08/12 06:17:34;;;;;;;9.52;4.28;;;23.00;92.90;;;;;;5094879;28;20059;-68
2022/08/12 06:19:59;;;;;;;7.00;4.90;;;23.00;92.40;;;;;;5094626;28;20071;-67
2022/08/12 06:22:25;;;;;;;8.02;4.40;;;23.10;92.50;;;;;;5094318;28;20040;-68
2022/08/12 06:24:52;;;;;;;6.78;4.25;;;23.20;92.00;;;;;;5074580;28;20110;-68
2022/08/12 06:27:18;;;;;;;6.18;3.92;;;23.40;91.80;;;;;;5074528;28;20453;-68
2022/08/12 06:29:44;;;;;;;6.97;4.22;;;23.40;91.20;;;;;;5072980;28;20040;-67
2022/08/12 06:32:09;;;;;;;4.28;3.70;;;23.50;91.00;;;;;;5074295;28;20032;-67
2022/08/12 06:34:35;;;;;;;4.97;3.75;;;23.70;90.60;;;;;;5076728;28;20032;-66
2022/08/12 06:37:01;;;;;;;7.07;4.10;;;23.80;90.20;;;;;;5074096;28;20136;-67
2022/08/12 06:39:27;;;;;;;5.55;4.05;;;23.90;89.30;;;;;;5073918;28;20460;-67
2022/08/12 06:44:38;;;;;;;6.72;4.18;;;24.10;87.80;;;;;;5074188;28;20044;-67
2022/08/12 06:47:04;;;;;;;5.32;3.70;;;24.30;86.20;;;;;;5073972;28;20042;-67
2022/08/12 06:49:35;;;;;;;8.63;3.90;;;24.40;85.50;;;;;;5073870;28;20052;-67
2022/08/12 06:52:03;;;;;;;8.43;3.90;;;24.60;83.60;;;;;;5073972;28;20513;-67
2022/08/12 06:54:29;;;;;;;10.63;3.42;;;24.70;81.70;;;;;;5074040;28;20040;-67
2022/08/12 06:56:56;;;;;;;7.22;3.85;;;24.80;81.50;;;;;;5071466;28;20080;-67
2022/08/12 06:59:21;;;;;;;8.98;3.78;;;24.90;79.70;;;;;;5073708;28;20060;-67
2022/08/12 07:01:48;;;;;;;7.78;4.47;;;24.90;78.40;;;;;;5073907;28;20469;-67
2022/08/12 07:04:16;;;;;;;12.63;4.90;;;24.90;78.00;;;;;;5073718;28;20418;-67
2022/08/12 07:06:43;;;;;;;10.52;4.30;;;24.90;77.70;;;;;;5072341;28;20040;-67
2022/08/12 07:09:09;;;;;;;6.72;4.40;;;25.20;76.60;;;;;;5073771;28;20037;-66
2022/08/12 07:11:39;;;;;;;4.68;4.00;;;25.30;76.10;;;;;;5073622;28;20054;-67
2022/08/12 07:14:05;;;;;;;5.45;3.72;;;25.60;75.70;;;;;;5073435;28;20510;-67
2022/08/12 07:16:51;;;;;;;8.88;5.57;;;25.70;76.10;;;;;;5073644;28;20048;-67
2022/08/12 07:19:17;;;;;;;8.20;5.13;;;26.00;75.50;;;;;;5073074;28;20044;-67
2022/08/12 07:21:43;;;;;;;8.52;5.10;;;26.30;74.00;;;;;;5073572;28;20048;-67
2022/08/12 07:24:08;;;;;;;10.07;5.18;;;26.50;73.50;;;;;;5073523;28;20043;-67
2022/08/12 07:26:38;;;;;;;8.00;5.63;;;26.70;72.80;;;;;;5073380;28;20509;-67
2022/08/12 07:29:03;;;;;;;6.75;5.80;;;26.80;72.80;;;;;;5073334;28;20044;-67
2022/08/12 07:31:29;;;;;;;6.80;4.70;;;26.90;71.50;;;;;;5072992;28;20040;-67
2022/08/12 07:33:55;;;;;;;7.22;5.10;;;26.90;68.80;;;;;;5072136;28;20490;-67
2022/08/12 07:36:21;;;;;;;8.55;4.95;;;26.90;68.50;;;;;;5073290;28;20039;-67
2022/08/12 07:38:50;;;;;;;7.38;4.45;;;27.00;68.70;;;;;;5073222;28;20040;-67
2022/08/12 07:41:24;;;;;;;10.40;4.22;;;27.10;67.40;;;;;;5072824;28;20127;-67
2022/08/12 07:43:56;;;;;;;7.38;4.45;;;27.20;66.20;;;;;;5072966;28;20123;-67
2022/08/12 07:46:35;;;;;;;7.32;4.90;;;27.10;65.60;;;;;;5072767;28;20048;-67
2022/08/12 07:49:08;;;;;;;11.63;4.75;;;27.10;64.20;;;;;;5073074;28;20032;-67
2022/08/12 07:51:34;;;;;;;6.28;4.05;;;27.20;65.10;;;;;;5072195;28;20036;-67
2022/08/12 07:54:02;;;;;;;9.13;4.35;;;27.20;65.40;;;;;;5072933;28;20517;-67
2022/08/12 07:56:29;;;;;;;8.45;4.78;;;27.40;64.70;;;;;;5072901;28;20124;-67
2022/08/12 07:58:57;;;;;;;10.55;4.88;;;27.40;64.60;;;;;;5072600;28;20040;-67
2022/08/12 08:01:24;;;;;;;11.23;4.93;;;27.40;64.70;;;;;;5072567;28;20063;-67
2022/08/12 08:06:43;;;;;;;8.65;4.10;;;27.80;65.00;;;;;;5056272;28;20048;-68
2022/08/12 08:09:15;;;;;;;8.32;4.97;;;27.90;63.40;;;;;;5071924;28;20624;-67
2022/08/12 08:14:27;;;;;;;7.13;3.58;;;27.70;62.10;;;;;;5072223;28;20045;-67
2022/08/12 08:16:55;;;;;;;5.82;3.80;;;28.00;61.80;;;;;;5072443;28;20137;-67
2022/08/12 08:19:24;;;;;;;4.53;3.72;;;28.20;61.30;;;;;;5071987;28;20554;-67
2022/08/12 08:21:52;;;;;;;13.18;3.67;;;28.30;61.10;;;;;;5072189;28;20505;-67
2022/08/12 08:24:17;;;;;;;5.32;3.92;;;28.40;61.30;;;;;;5072365;28;20115;-67
2022/08/12 08:26:48;;;;;;;7.03;3.95;;;28.50;60.30;;;;;;5072245;28;20509;-67
2022/08/12 08:29:20;;;;;;;5.70;3.50;;;28.50;59.30;;;;;;5071991;28;20418;-67
2022/08/12 08:31:51;;;;;;;9.00;4.95;;;28.60;59.50;;;;;;5072210;28;20107;-67
2022/08/12 08:34:18;;;;;;;9.95;4.72;;;28.50;58.90;;;;;;5071939;28;20043;-67
2022/08/12 08:36:44;;;;;;;9.75;5.82;;;28.60;58.50;;;;;;5060466;28;20040;-67
2022/08/12 08:39:12;;;;;;;12.68;5.95;;;28.80;58.10;;;;;;5068519;28;20849;-67
2022/08/12 08:44:22;;;;;;;10.77;6.05;;;28.90;57.50;;;;;;5066920;28;20044;-68
2022/08/12 08:46:48;;;;;;;11.10;6.45;;;29.00;56.70;;;;;;5068284;28;20386;-67
2022/08/12 08:49:16;;;;;;;10.13;6.07;;;29.10;56.60;;;;;;5072426;28;20071;-68
2022/08/12 08:51:43;;;;;;;7.07;5.20;;;29.10;56.30;;;;;;5072664;28;20036;-67
2022/08/12 08:54:13;;;;;;;6.75;4.22;;;29.40;56.30;;;;;;5069439;28;20034;-67
2022/08/12 08:56:43;;;;;;;4.57;3.40;;;29.50;55.10;;;;;;5067449;28;20145;-67
2022/08/12 08:59:12;;;;;;;8.05;3.10;;;29.60;55.60;;;;;;5071762;28;20044;-67
2022/08/12 09:01:39;;;;;;;10.18;3.13;;;29.60;54.10;;;;;;5071828;28;20506;-67
2022/08/12 09:04:06;;;;;;;4.75;2.67;;;29.40;54.10;;;;;;5070630;28;20048;-67
2022/08/12 09:06:31;;;;;;;8.88;3.53;;;29.50;54.60;;;;;;5071223;28;20041;-67
2022/08/12 09:08:57;;;;;;;7.38;2.50;;;29.60;53.40;;;;;;5072239;28;20040;-66
2022/08/12 09:14:08;;;;;;;6.95;3.28;;;29.70;53.90;;;;;;5063956;28;20064;-67
2022/08/12 09:16:37;;;;;;;5.50;2.42;;;29.80;53.60;;;;;;5070157;28;20068;-67
2022/08/12 09:19:04;;;;;;;5.50;2.70;;;30.10;52.80;;;;;;5063562;28;20533;-67
2022/08/12 09:21:30;;;;;;;7.70;2.70;;;30.10;52.20;;;;;;5074907;28;20094;-67
2022/08/12 09:23:59;;;;;;;6.28;2.83;;;30.20;52.40;;;;;;5075677;28;20036;-67
2022/08/12 09:26:28;;;;;;;6.18;2.47;;;30.10;51.80;;;;;;5075608;28;20044;-67
2022/08/12 09:28:58;;;;;;;4.82;2.75;;;30.20;51.90;;;;;;5075486;28;20037;-67
2022/08/12 09:31:24;;;;;;;8.75;2.50;;;30.30;51.20;;;;;;5075307;28;20044;-67
2022/08/12 09:33:50;;;;;;;7.20;2.95;;;30.10;50.90;;;;;;5075494;28;20042;-67
2022/08/12 09:36:19;;;;;;;10.00;2.92;;;30.30;50.40;;;;;;5075447;28;20040;-67
2022/08/12 09:38:45;;;;;;;7.75;2.40;;;30.10;49.00;;;;;;5075322;28;20390;-67
2022/08/12 09:41:14;;;;;;;4.93;2.60;;;30.10;49.20;;;;;;5075221;28;20037;-68
2022/08/12 09:46:27;;;;;;;8.85;2.45;;;29.90;48.00;;;;;;5075203;28;20051;-67
2022/08/12 09:48:52;;;;;;;8.93;2.35;;;29.90;48.10;;;;;;5074154;28;20048;-67
2022/08/12 09:51:19;;;;;;;7.13;2.85;;;29.90;48.50;;;;;;5074764;28;20040;-68
2022/08/12 09:53:45;;;;;;;8.55;3.03;;;30.00;47.50;;;;;;5075162;28;20045;-68
2022/08/12 09:56:12;;;;;;;3.55;2.67;;;29.80;46.00;;;;;;5073894;28;20047;-67
2022/08/12 09:58:40;;;;;;;6.47;2.17;;;29.80;46.10;;;;;;5073857;28;20044;-67
2022/08/12 10:01:06;;;;;;;10.82;2.67;;;29.90;47.00;;;;;;5075202;28;20472;-68
2022/08/12 10:03:35;;;;;;;7.63;2.58;;;29.90;46.20;;;;;;5074749;28;20120;-67
2022/08/12 10:06:05;;;;;;;6.80;2.85;;;29.90;45.50;;;;;;5074656;28;20047;-66
2022/08/12 10:08:33;;;;;;;4.13;2.22;;;30.00;45.60;;;;;;5075006;28;20123;-67
2022/08/12 10:13:45;;;;;;;8.50;2.40;;;30.00;44.10;;;;;;5074574;28;20105;-67
2022/08/12 10:16:16;;;;;;;3.40;2.05;;;29.90;43.70;;;;;;5077607;28;20450;-67
2022/08/12 10:18:54;;;;;;;4.43;2.10;;;29.90;43.20;;;;;;5075172;28;20094;-67
2022/08/12 10:21:26;;;;;;;6.95;2.67;;;29.90;42.80;;;;;;5074581;28;20044;-67
2022/08/12 10:23:53;;;;;;;3.47;2.38;;;30.00;41.90;;;;;;5074474;28;20522;-67
2022/08/12 10:31:52;;;;;;;2.58;2.10;;;29.80;41.20;;;;;;5074074;28;20052;-67
2022/08/12 10:34:21;;;;;;;5.57;2.13;;;29.80;41.20;;;;;;5074342;28;20114;-67
2022/08/12 10:36:48;;;;;;;5.85;2.30;;;29.70;40.80;;;;;;5074230;28;20044;-67
2022/08/12 10:39:16;;;;;;;3.17;2.40;;;29.90;41.70;;;;;;5073758;28;20044;-66
2022/08/12 10:44:28;;;;;;;4.35;1.60;;;30.00;40.60;;;;;;5074323;28;20094;-67
2022/08/12 10:46:54;;;;;;;2.75;1.85;;;30.00;40.20;;;;;;5074031;28;20055;-67
2022/08/12 10:49:27;;;;;;;3.33;2.15;;;30.00;40.50;;;;;;5073753;28;20490;-67
2022/08/12 10:51:56;;;;;;;5.93;2.17;;;30.00;40.90;;;;;;5073942;28;20040;-67
2022/08/12 10:54:24;;;;;;;6.88;2.70;;;30.00;41.30;;;;;;5074045;28;20047;-66
2022/08/12 10:56:50;;;;;;;3.42;2.15;;;30.10;42.00;;;;;;5056017;28;20041;-67
2022/08/12 10:59:16;;;;;;;4.38;2.17;;;30.10;41.20;;;;;;5072452;28;20036;-67
2022/08/12 11:01:42;;;;;;;6.80;2.20;;;30.00;40.50;;;;;;5073844;28;20054;-67
2022/08/12 11:04:12;;;;;;;5.78;2.05;;;29.90;40.10;;;;;;5073661;28;20041;-67
2022/08/12 11:06:49;;;;;;;4.60;2.03;;;30.10;40.60;;;;;;5074088;28;20044;-67
2022/08/12 11:09:19;;;;;;;2.63;2.03;;;30.10;40.40;;;;;;5073381;28;20086;-67
2022/08/12 11:11:49;;;;;;;4.85;2.03;;;30.20;40.60;;;;;;5073638;28;20036;-67
2022/08/12 11:14:22;;;;;;;4.03;1.80;;;30.20;40.20;;;;;;5073438;28;20458;-67
2022/08/12 11:16:47;;;;;;;3.75;1.70;;;30.10;39.10;;;;;;5073468;28;20044;-67
2022/08/12 11:19:13;;;;;;;3.20;2.00;;;30.20;39.60;;;;;;5073420;28;20089;-68
2022/08/12 11:21:39;;;;;;;6.80;2.53;;;30.20;39.60;;;;;;5073650;28;20041;-67
2022/08/12 11:24:05;;;;;;;6.28;2.05;;;30.10;39.50;;;;;;5073454;28;20045;-67
2022/08/12 11:26:31;;;;;;;4.80;2.25;;;30.20;39.80;;;;;;5073385;28;20128;-67
2022/08/12 11:28:57;;;;;;;7.13;1.85;;;30.10;39.70;;;;;;5073349;28;20041;-67
2022/08/12 11:31:23;;;;;;;3.33;1.95;;;30.20;39.30;;;;;;5072833;28;20505;-67
2022/08/12 11:33:49;;;;;;;4.20;2.00;;;30.20;39.20;;;;;;5073365;28;20406;-67
2022/08/12 11:36:15;;;;;;;4.18;2.10;;;30.20;39.00;;;;;;5073358;28;20040;-67
2022/08/12 11:38:41;;;;;;;7.60;2.13;;;30.10;39.00;;;;;;5074166;28;20055;-68
2022/08/12 11:41:07;;;;;;;3.63;1.77;;;30.10;39.10;;;;;;5071796;28;20123;-68
2022/08/12 11:43:33;;;;;;;3.38;1.83;;;30.10;39.30;;;;;;5072227;28;20186;-68
2022/08/12 11:45:59;;;;;;;4.40;2.08;;;30.10;39.40;;;;;;5072696;28;20044;-68
2022/08/12 11:48:25;;;;;;;5.63;1.70;;;30.10;39.40;;;;;;5071924;28;20055;-68
2022/08/12 11:50:51;;;;;;;4.45;1.80;;;30.10;39.20;;;;;;5072713;28;20033;-68
2022/08/12 11:53:16;;;;;;;5.00;1.70;;;30.10;39.00;;;;;;5072774;28;20497;-68
2022/08/12 11:55:42;;;;;;;3.88;1.92;;;30.00;39.20;;;;;;5072784;28;20406;-67
2022/08/12 11:58:08;;;;;;;3.92;2.00;;;30.10;39.20;;;;;;5072114;28;20044;-66
2022/08/12 12:00:33;;;;;;;4.32;1.90;;;30.30;38.90;;;;;;5071638;28;20048;-67
2022/08/12 12:02:59;;;;;;;3.70;1.70;;;30.40;38.30;;;;;;5071798;28;20128;-66
2022/08/12 12:05:24;;;;;;;4.47;1.90;;;30.50;38.50;;;;;;5071527;28;20624;-66
2022/08/12 12:07:50;;;;;;;8.00;1.83;;;30.50;38.50;;;;;;5072183;28;20032;-66
2022/08/12 12:10:18;;;;;;;4.80;1.65;;;30.50;38.70;;;;;;5072236;28;20037;-66
2022/08/12 12:12:44;;;;;;;3.25;1.88;;;30.60;38.90;;;;;;5070953;28;20048;-66
2022/08/12 12:15:11;;;;;;;7.70;1.85;;;30.70;38.50;;;;;;5129117;22;20071;-69
2022/08/12 12:17:38;;;;;;;4.90;1.60;;;30.70;38.90;;;;;;5112709;28;20047;-69
2022/08/12 12:20:09;;;;;;;7.40;2.05;;;30.80;38.50;;;;;;5112675;28;20126;-69
2022/08/12 12:22:39;;;;;;;3.05;1.55;;;30.80;38.30;;;;;;5111796;28;20042;-70
2022/08/12 12:25:06;;;;;;;5.38;1.70;;;30.70;38.60;;;;;;5103583;28;20035;-71
2022/08/12 12:27:52;;;;;;;5.80;1.85;;;30.60;38.20;;;;;;5101519;28;20040;-70
2022/08/12 12:30:18;;;;;;;4.45;1.73;;;30.60;38.10;;;;;;5084162;28;20038;-69
2022/08/12 12:32:44;;;;;;;2.88;1.90;;;30.60;38.20;;;;;;5101130;28;20032;-69
2022/08/12 12:35:10;;;;;;;3.30;1.52;;;30.60;38.50;;;;;;5100501;28;20035;-69
2022/08/12 12:37:59;;;;;;;7.80;2.10;;;30.50;37.70;;;;;;5101017;28;20051;-71
2022/08/12 12:40:26;;;;;;;3.95;2.00;;;30.60;37.70;;;;;;5094595;28;20040;-69
2022/08/12 12:42:52;;;;;;;4.65;1.67;;;30.60;37.80;;;;;;5098398;28;20052;-69
2022/08/12 12:45:18;;;;;;;2.38;1.60;;;30.50;38.00;;;;;;5078478;28;20057;-68
2022/08/12 12:48:01;;;;;;;3.63;1.90;;;30.60;38.50;;;;;;5081695;28;20071;-69
2022/08/12 12:50:32;;;;;;;9.45;1.83;;;30.50;37.90;;;;;;5102610;28;20031;-69
2022/08/12 12:52:58;;;;;;;4.70;1.65;;;30.50;38.30;;;;;;5104441;27;20051;-68
2022/08/12 12:55:24;;;;;;;3.90;1.92;;;30.50;37.90;;;;;;5108455;28;20123;-69
2022/08/12 12:57:50;;;;;;;5.15;1.50;;;30.60;37.70;;;;;;5101721;28;20043;-69
2022/08/12 13:00:18;;;;;;;4.13;1.70;;;30.60;37.50;;;;;;5100642;28;20449;-69
2022/08/12 13:02:52;;;;;;;3.05;1.60;;;30.70;38.30;;;;;;5109518;28;20122;-69
2022/08/12 13:05:19;;;;;;;4.55;1.55;;;30.70;38.00;;;;;;5109998;28;20400;-69
2022/08/12 13:07:44;;;;;;;4.72;1.77;;;30.70;37.50;;;;;;5102427;28;20043;-69
2022/08/12 13:10:10;;;;;;;3.17;1.80;;;30.70;37.40;;;;;;5099992;28;20032;-69
2022/08/12 13:12:38;;;;;;;5.32;2.03;;;30.80;37.70;;;;;;5091966;28;20039;-69
2022/08/12 13:15:08;;;;;;;2.60;1.73;;;30.70;37.30;;;;;;5091706;28;20440;-69
2022/08/12 13:17:34;;;;;;;2.90;1.67;;;30.80;37.40;;;;;;5091766;28;20105;-69
2022/08/12 13:20:04;;;;;;;5.78;1.75;;;30.80;37.60;;;;;;5091306;28;20090;-69
2022/08/12 13:22:30;;;;;;;4.32;1.90;;;30.80;37.60;;;;;;5091888;28;20040;-68
2022/08/12 13:24:58;;;;;;;3.45;1.60;;;30.80;37.40;;;;;;5073444;28;20504;-70
2022/08/12 13:27:32;;;;;;;5.28;1.63;;;30.80;37.00;;;;;;5096835;28;20039;-68
2022/08/12 13:29:57;;;;;;;4.55;1.90;;;30.90;36.90;;;;;;5082001;28;20040;-68
2022/08/12 13:32:28;;;;;;;1.95;1.40;;;30.90;36.50;;;;;;5083658;28;20538;-69
2022/08/12 13:34:55;;;;;;;3.05;1.70;;;30.90;36.70;;;;;;5102747;28;20055;-69
2022/08/12 13:37:25;;;;;;;3.60;1.30;;;30.90;37.10;;;;;;5100800;28;20039;-69
2022/08/12 13:39:51;;;;;;;7.57;2.17;;;31.10;37.10;;;;;;5100274;28;20054;-69
2022/08/12 13:42:21;;;;;;;4.55;1.65;;;31.20;36.80;;;;;;5105386;28;20108;-68
2022/08/12 13:44:52;;;;;;;2.00;1.25;;;31.20;36.50;;;;;;5099719;28;20515;-68
2022/08/12 13:47:20;;;;;;;5.57;1.92;;;31.20;36.60;;;;;;5101946;28;20060;-68
2022/08/12 13:49:47;;;;;;;3.22;1.20;;;31.30;36.40;;;;;;5102469;28;20031;-68
2022/08/12 13:52:14;;;;;;;3.88;1.38;;;31.30;36.20;;;;;;5098528;28;20071;-68
2022/08/12 13:54:39;;;;;;;4.03;1.88;;;31.20;36.30;;;;;;5091476;28;20073;-70
2022/08/12 13:57:05;;;;;;;4.05;1.83;;;31.20;36.60;;;;;;5091404;28;20118;-69
2022/08/12 13:59:30;;;;;;;2.33;1.35;;;31.20;36.30;;;;;;5090988;28;20038;-69
2022/08/12 14:01:56;;;;;;;4.85;1.60;;;31.20;35.90;;;;;;5098820;28;20119;-69
2022/08/12 14:04:21;;;;;;;4.28;1.63;;;31.30;36.70;;;;;;5099984;28;20048;-69
2022/08/12 14:06:49;;;;;;;3.97;1.75;;;31.30;37.50;;;;;;5102944;28;20039;-69
2022/08/12 14:09:15;;;;;;;8.45;1.98;;;31.40;37.80;;;;;;5119212;27;20035;-69
2022/08/12 14:11:41;;;;;;;4.63;1.77;;;31.50;37.80;;;;;;5131422;27;20385;-69
2022/08/12 14:14:08;;;;;;;5.38;1.88;;;31.50;37.40;;;;;;5126616;27;20063;-69
2022/08/12 14:16:34;;;;;;;3.78;1.80;;;31.50;37.10;;;;;;5130529;27;20046;-69
2022/08/12 14:19:00;;;;;;;3.88;1.50;;;31.40;37.20;;;;;;5117754;27;20057;-69
2022/08/12 14:21:27;;;;;;;3.72;1.60;;;31.30;37.20;;;;;;5135599;27;20076;-69
2022/08/12 14:23:53;;;;;;;3.17;1.85;;;31.30;37.40;;;;;;5119852;27;20040;-69
2022/08/12 14:26:23;;;;;;;1.77;1.45;;;31.20;37.10;;;;;;5106005;28;20042;-69
2022/08/12 14:28:52;;;;;;;4.10;1.50;;;31.10;37.30;;;;;;5115100;28;20039;-70
2022/08/12 14:31:20;;;;;;;2.53;1.38;;;31.20;37.80;;;;;;5111132;27;20508;-69
2022/08/12 14:33:48;;;;;;;4.15;1.70;;;31.10;37.50;;;;;;5126955;27;20519;-69
2022/08/12 14:36:21;;;;;;;2.92;1.92;;;31.10;37.90;;;;;;5117090;27;20043;-69
2022/08/12 14:38:49;;;;;;;3.78;1.90;;;31.10;38.00;;;;;;5095953;28;20032;-69
2022/08/12 14:41:20;;;;;;;2.45;1.90;;;31.00;38.00;;;;;;5101774;28;20044;-69